createdAt,value
2017-10-25T00:00:57.626Z,0
2017-10-25T00:02:07.635Z,0
2017-10-25T00:03:17.972Z,0
2017-10-25T00:04:27.976Z,0
2017-10-25T00:05:38.312Z,0
2017-10-25T00:06:48.652Z,0
2017-10-25T00:07:58.993Z,0
2017-10-25T00:09:09.336Z,0
2017-10-25T00:10:19.362Z,0
2017-10-25T00:11:29.379Z,0
2017-10-25T00:12:39.712Z,0
2017-10-25T00:13:50.048Z,0
2017-10-25T00:15:00.386Z,0
2017-10-25T00:16:10.386Z,0
2017-10-25T00:17:20.723Z,0
2017-10-25T00:18:31.083Z,0
2017-10-25T00:19:41.422Z,0
2017-10-25T00:20:51.761Z,0
2017-10-25T00:22:02.106Z,0
2017-10-25T00:23:12.447Z,0
2017-10-25T00:24:22.791Z,0
2017-10-25T00:25:33.131Z,0
2017-10-25T00:26:43.473Z,0
2017-10-25T00:27:53.813Z,0
2017-10-25T00:29:03.814Z,0
2017-10-25T00:30:14.168Z,0
2017-10-25T00:31:23.502Z,0
2017-10-25T00:32:33.850Z,0
2017-10-25T00:33:44.215Z,0
2017-10-25T00:34:54.216Z,0
2017-10-25T00:36:04.558Z,0
2017-10-25T00:37:14.565Z,0
2017-10-25T00:38:24.902Z,0
2017-10-25T00:39:35.239Z,0
2017-10-25T00:40:45.576Z,0
2017-10-25T00:41:55.932Z,0
2017-10-25T00:43:06.265Z,0
2017-10-25T00:44:15.938Z,0
2017-10-25T00:45:25.937Z,0
2017-10-25T00:46:35.942Z,0
2017-10-25T00:47:45.944Z,0
2017-10-25T00:48:56.292Z,0
2017-10-25T00:50:06.640Z,0
2017-10-25T00:51:16.984Z,0
2017-10-25T00:52:26.985Z,0
2017-10-25T00:53:37.326Z,0
2017-10-25T00:54:47.662Z,0
2017-10-25T00:55:58.012Z,0
2017-10-25T00:57:08.349Z,0
2017-10-25T00:58:18.686Z,0
2017-10-25T00:59:29.025Z,0
2017-10-25T01:00:39.051Z,0
2017-10-25T01:01:49.389Z,0
2017-10-25T01:02:59.731Z,0
2017-10-25T01:04:10.070Z,0
2017-10-25T01:05:19.735Z,0
2017-10-25T01:06:29.741Z,0
2017-10-25T01:07:40.084Z,0
2017-10-25T01:08:50.425Z,0
2017-10-25T01:10:00.436Z,0
2017-10-25T01:11:10.443Z,0
2017-10-25T01:12:20.453Z,0
2017-10-25T01:13:30.790Z,0
2017-10-25T01:14:40.796Z,0
2017-10-25T01:15:50.463Z,0
2017-10-25T01:17:00.471Z,0
2017-10-25T01:18:10.812Z,0
2017-10-25T01:19:20.814Z,0
2017-10-25T01:20:31.167Z,0
2017-10-25T01:21:41.522Z,0
2017-10-25T01:22:51.889Z,0
2017-10-25T01:24:02.229Z,0
2017-10-25T01:25:12.574Z,0
2017-10-25T01:26:22.923Z,0
2017-10-25T01:27:32.932Z,0
2017-10-25T01:28:43.273Z,0
2017-10-25T01:29:52.942Z,0
2017-10-25T01:31:02.962Z,0
2017-10-25T01:32:12.978Z,0
2017-10-25T01:33:23.313Z,0
2017-10-25T01:34:33.654Z,0
2017-10-25T01:35:43.656Z,0
2017-10-25T01:36:53.659Z,0
2017-10-25T01:38:03.665Z,0
2017-10-25T01:39:14.036Z,0
2017-10-25T01:40:24.390Z,0
2017-10-25T01:41:34.045Z,0
2017-10-25T01:42:43.717Z,0
2017-10-25T01:43:54.063Z,0
2017-10-25T01:45:04.406Z,0
2017-10-25T01:46:14.742Z,0
2017-10-25T01:47:24.750Z,0
2017-10-25T01:48:34.759Z,0
2017-10-25T01:49:45.103Z,0
2017-10-25T01:50:55.114Z,0
2017-10-25T01:52:05.115Z,0
2017-10-25T01:53:14.789Z,0
2017-10-25T01:54:25.126Z,0
2017-10-25T01:55:35.463Z,0
2017-10-25T01:56:45.812Z,0
2017-10-25T01:57:56.147Z,0
2017-10-25T01:59:06.170Z,0
2017-10-25T02:00:16.525Z,0
2017-10-25T02:01:26.533Z,0
2017-10-25T02:02:36.868Z,0
2017-10-25T02:03:47.210Z,0
2017-10-25T02:04:57.223Z,0
2017-10-25T02:06:06.894Z,0
2017-10-25T02:07:17.231Z,0
2017-10-25T02:08:27.598Z,0
2017-10-25T02:09:37.940Z,0
2017-10-25T02:10:48.279Z,0
2017-10-25T02:11:57.947Z,0
2017-10-25T02:13:08.289Z,0
2017-10-25T02:14:18.290Z,0
2017-10-25T02:15:28.635Z,0
2017-10-25T02:16:38.975Z,0
2017-10-25T02:17:49.311Z,0
2017-10-25T02:18:59.312Z,0
2017-10-25T02:20:09.312Z,0
2017-10-25T02:21:19.662Z,0
2017-10-25T02:22:29.667Z,0
2017-10-25T02:23:40.015Z,0
2017-10-25T02:24:50.365Z,0
2017-10-25T02:26:00.717Z,0
2017-10-25T02:27:11.062Z,0
2017-10-25T02:28:21.406Z,0
2017-10-25T02:29:31.406Z,0
2017-10-25T02:30:41.752Z,0
2017-10-25T02:31:52.099Z,0
2017-10-25T02:33:02.441Z,0
2017-10-25T02:34:12.780Z,0
2017-10-25T02:35:23.138Z,0
2017-10-25T02:36:33.143Z,0
2017-10-25T02:37:43.489Z,0
2017-10-25T02:38:53.168Z,0
2017-10-25T02:40:03.548Z,0
2017-10-25T02:41:13.564Z,0
2017-10-25T02:42:23.904Z,0
2017-10-25T02:43:34.242Z,0
2017-10-25T02:44:44.589Z,0
2017-10-25T02:45:54.597Z,0
2017-10-25T02:47:04.939Z,0
2017-10-25T02:48:15.282Z,0
2017-10-25T02:49:24.954Z,0
2017-10-25T02:50:35.298Z,0
2017-10-25T02:51:45.302Z,0
2017-10-25T02:52:55.668Z,0
2017-10-25T02:54:06.029Z,0
2017-10-25T02:55:16.393Z,0
2017-10-25T02:56:26.753Z,0
2017-10-25T02:57:37.109Z,0
2017-10-25T02:58:47.129Z,0
2017-10-25T02:59:57.481Z,0
2017-10-25T03:01:07.824Z,0
2017-10-25T03:02:17.828Z,0
2017-10-25T03:03:28.174Z,0
2017-10-25T03:04:38.506Z,0
2017-10-25T03:05:48.852Z,0
2017-10-25T03:06:58.518Z,0
2017-10-25T03:08:08.862Z,0
2017-10-25T03:09:18.528Z,0
2017-10-25T03:10:28.542Z,0
2017-10-25T03:11:38.549Z,0
2017-10-25T03:12:48.883Z,0
2017-10-25T03:13:58.552Z,0
2017-10-25T03:15:08.892Z,0
2017-10-25T03:16:19.244Z,0
2017-10-25T03:17:29.248Z,0
2017-10-25T03:18:39.250Z,0
2017-10-25T03:19:49.590Z,0
2017-10-25T03:20:59.929Z,0
2017-10-25T03:22:10.269Z,0
2017-10-25T03:23:20.270Z,0
2017-10-25T03:24:29.601Z,0
2017-10-25T03:25:39.936Z,0
2017-10-25T03:26:49.935Z,0
2017-10-25T03:28:00.284Z,0
2017-10-25T03:29:10.630Z,0
2017-10-25T03:30:20.980Z,0
2017-10-25T03:31:30.984Z,0
2017-10-25T03:32:41.317Z,0
2017-10-25T03:33:51.317Z,0
2017-10-25T03:35:00.991Z,0
2017-10-25T03:36:10.996Z,0
2017-10-25T03:37:21.004Z,0
2017-10-25T03:38:31.041Z,0
2017-10-25T03:39:41.046Z,0
2017-10-25T03:40:51.382Z,0
2017-10-25T03:42:01.386Z,0
2017-10-25T03:43:11.410Z,0
2017-10-25T03:44:21.419Z,0
2017-10-25T03:45:31.422Z,0
2017-10-25T03:46:41.759Z,0
2017-10-25T03:47:51.772Z,0
2017-10-25T03:49:01.450Z,0
2017-10-25T03:50:11.816Z,0
2017-10-25T03:51:21.822Z,0
2017-10-25T03:52:31.827Z,0
2017-10-25T03:53:42.166Z,0
2017-10-25T03:54:52.167Z,0
2017-10-25T03:56:02.509Z,0
2017-10-25T03:57:12.844Z,0
2017-10-25T03:58:23.181Z,0
2017-10-25T03:59:33.522Z,0
2017-10-25T04:00:43.525Z,0
2017-10-25T04:01:53.864Z,0
2017-10-25T04:03:04.201Z,0
2017-10-25T04:04:14.546Z,0
2017-10-25T04:05:24.901Z,0
2017-10-25T04:06:35.270Z,0
2017-10-25T04:07:45.616Z,0
2017-10-25T04:08:55.962Z,0
2017-10-25T04:10:06.311Z,0
2017-10-25T04:11:16.654Z,0
2017-10-25T04:12:26.663Z,0
2017-10-25T04:13:37.003Z,0
2017-10-25T04:14:47.015Z,0
2017-10-25T04:15:57.369Z,0
2017-10-25T04:17:07.724Z,0
2017-10-25T04:18:18.064Z,0
2017-10-25T04:19:28.075Z,0
2017-10-25T04:20:38.410Z,0
2017-10-25T04:21:48.748Z,0
2017-10-25T04:22:58.755Z,0
2017-10-25T04:24:08.763Z,0
2017-10-25T04:25:18.770Z,0
2017-10-25T04:26:28.773Z,0
2017-10-25T04:27:38.441Z,0
2017-10-25T04:28:48.781Z,0
2017-10-25T04:29:58.783Z,0
2017-10-25T04:31:08.802Z,0
2017-10-25T04:32:19.154Z,0
2017-10-25T04:33:29.489Z,0
2017-10-25T04:34:39.833Z,0
2017-10-25T04:35:50.178Z,0
2017-10-25T04:37:00.190Z,0
2017-10-25T04:38:10.525Z,0
2017-10-25T04:39:20.865Z,0
2017-10-25T04:40:30.869Z,0
2017-10-25T04:41:40.873Z,0
2017-10-25T04:42:51.211Z,0
2017-10-25T04:44:01.544Z,0
2017-10-25T04:45:11.572Z,0
2017-10-25T04:46:21.911Z,0
2017-10-25T04:47:31.914Z,0
2017-10-25T04:48:42.258Z,0
2017-10-25T04:49:52.611Z,0
2017-10-25T04:51:02.616Z,0
2017-10-25T04:52:12.286Z,0
2017-10-25T04:53:22.628Z,0
2017-10-25T04:54:32.964Z,0
2017-10-25T04:55:42.637Z,0
2017-10-25T04:56:52.977Z,0
2017-10-25T04:58:03.567Z,0
2017-10-25T04:59:13.580Z,0
2017-10-25T05:00:23.596Z,0
2017-10-25T05:01:33.931Z,0
2017-10-25T05:02:44.281Z,0
2017-10-25T05:03:54.622Z,0
2017-10-25T05:05:04.637Z,0
2017-10-25T05:06:14.641Z,0
2017-10-25T05:07:24.997Z,0
2017-10-25T05:08:35.341Z,0
2017-10-25T05:09:45.679Z,0
2017-10-25T05:10:56.018Z,0
2017-10-25T05:12:06.360Z,0
2017-10-25T05:13:16.364Z,0
2017-10-25T05:14:26.704Z,0
2017-10-25T05:15:36.708Z,0
2017-10-25T05:16:46.745Z,0
2017-10-25T05:17:57.084Z,0
2017-10-25T05:19:07.440Z,0
2017-10-25T05:20:16.777Z,0
2017-10-25T05:21:27.118Z,0
2017-10-25T05:22:37.119Z,0
2017-10-25T05:23:47.463Z,0
2017-10-25T05:24:57.799Z,0
2017-10-25T05:26:07.810Z,0
2017-10-25T05:27:17.499Z,0
2017-10-25T05:28:27.849Z,0
2017-10-25T05:29:38.191Z,0
2017-10-25T05:30:48.527Z,0
2017-10-25T05:31:58.874Z,0
2017-10-25T05:33:09.212Z,0
2017-10-25T05:34:19.218Z,0
2017-10-25T05:35:29.226Z,0
2017-10-25T05:36:39.564Z,0
2017-10-25T05:37:49.901Z,0
2017-10-25T05:39:00.248Z,0
2017-10-25T05:40:10.259Z,0
2017-10-25T05:41:20.593Z,0
2017-10-25T05:42:30.613Z,0
2017-10-25T05:43:40.952Z,0
2017-10-25T05:44:51.296Z,0
2017-10-25T05:46:01.644Z,0
2017-10-25T05:47:11.986Z,0
2017-10-25T05:48:22.336Z,0
2017-10-25T05:49:32.672Z,0
2017-10-25T05:50:42.340Z,0
2017-10-25T05:51:52.348Z,0
2017-10-25T05:53:02.703Z,0
2017-10-25T05:54:13.058Z,0
2017-10-25T05:55:23.069Z,0
2017-10-25T05:56:33.421Z,0
2017-10-25T05:57:43.437Z,0
2017-10-25T05:58:53.773Z,0
2017-10-25T06:00:04.127Z,0
2017-10-25T06:01:14.129Z,0
2017-10-25T06:02:24.134Z,0
2017-10-25T06:03:34.143Z,0
2017-10-25T06:04:44.148Z,0
2017-10-25T06:05:54.487Z,0
2017-10-25T06:07:04.496Z,0
2017-10-25T06:08:16.522Z,0
2017-10-25T06:09:26.870Z,0
2017-10-25T06:10:36.536Z,0
2017-10-25T06:11:46.880Z,0
2017-10-25T06:12:57.216Z,0
2017-10-25T06:14:07.560Z,0
2017-10-25T06:15:17.896Z,0
2017-10-25T06:16:28.233Z,0
2017-10-25T06:17:38.243Z,0
2017-10-25T06:18:48.257Z,0
2017-10-25T06:19:58.897Z,0
2017-10-25T06:21:08.915Z,0
2017-10-25T06:22:18.919Z,0
2017-10-25T06:23:29.275Z,0
2017-10-25T06:24:38.943Z,0
2017-10-25T06:25:48.951Z,0
2017-10-25T06:26:59.311Z,0
2017-10-25T06:28:09.671Z,0
2017-10-25T06:29:19.690Z,0
2017-10-25T06:30:29.698Z,0
2017-10-25T06:31:40.042Z,5
2017-10-25T06:32:50.053Z,5
2017-10-25T06:34:00.401Z,5
2017-10-25T06:35:10.742Z,5
2017-10-25T06:36:20.748Z,5
2017-10-25T06:37:31.085Z,5
2017-10-25T06:38:41.089Z,5
2017-10-25T06:39:51.099Z,5
2017-10-25T06:41:01.123Z,5
2017-10-25T06:42:11.486Z,5
2017-10-25T06:43:21.827Z,5
2017-10-25T06:44:31.829Z,5
2017-10-25T06:45:41.497Z,5
2017-10-25T06:46:51.498Z,5
2017-10-25T06:48:01.501Z,5
2017-10-25T06:49:11.517Z,5
2017-10-25T06:50:21.860Z,10
2017-10-25T06:51:31.864Z,10
2017-10-25T06:52:41.876Z,10
2017-10-25T06:53:52.210Z,10
2017-10-25T06:55:02.558Z,10
2017-10-25T06:56:12.567Z,10
2017-10-25T06:57:22.577Z,10
2017-10-25T06:58:32.914Z,10
2017-10-25T06:59:43.259Z,10
2017-10-25T07:00:53.271Z,15
2017-10-25T07:02:03.285Z,15
2017-10-25T07:03:13.673Z,15
2017-10-25T07:04:24.012Z,15
2017-10-25T07:05:34.349Z,15
2017-10-25T07:06:44.688Z,15
2017-10-25T07:07:55.039Z,15
2017-10-25T07:09:05.384Z,15
2017-10-25T07:10:15.390Z,15
2017-10-25T07:11:25.747Z,15
2017-10-25T07:12:36.082Z,15
2017-10-25T07:13:46.419Z,15
2017-10-25T07:14:56.784Z,15
2017-10-25T07:16:06.796Z,15
2017-10-25T07:17:17.148Z,15
2017-10-25T07:18:27.152Z,15
2017-10-25T07:19:37.494Z,15
2017-10-25T07:20:47.831Z,15
2017-10-25T07:21:57.509Z,15
2017-10-25T07:23:07.859Z,15
2017-10-25T07:24:18.207Z,15
2017-10-25T07:25:28.550Z,15
2017-10-25T07:26:38.559Z,20
2017-10-25T07:27:48.904Z,20
2017-10-25T07:28:59.253Z,20
2017-10-25T07:30:09.256Z,20
2017-10-25T07:31:19.599Z,20
2017-10-25T07:32:29.940Z,20
2017-10-25T07:33:40.331Z,20
2017-10-25T07:34:50.672Z,20
2017-10-25T07:36:01.023Z,20
2017-10-25T07:37:11.373Z,25
2017-10-25T07:38:21.715Z,30
2017-10-25T07:39:32.070Z,30
2017-10-25T07:40:42.093Z,30
2017-10-25T07:41:52.430Z,30
2017-10-25T07:43:02.105Z,30
2017-10-25T07:44:12.110Z,25
2017-10-25T07:45:22.112Z,25
2017-10-25T07:46:32.449Z,25
2017-10-25T07:47:42.120Z,25
2017-10-25T07:48:52.498Z,30
2017-10-25T07:50:02.507Z,30
2017-10-25T07:51:12.535Z,35
2017-10-25T07:52:22.874Z,35
2017-10-25T07:53:35.218Z,35
2017-10-25T07:54:45.554Z,35
2017-10-25T07:55:55.894Z,35
2017-10-25T07:57:05.898Z,35
2017-10-25T07:58:16.244Z,35
2017-10-25T07:59:26.650Z,35
2017-10-25T08:00:36.995Z,35
2017-10-25T08:01:47.332Z,35
2017-10-25T08:02:57.344Z,35
2017-10-25T08:04:07.353Z,35
2017-10-25T08:05:17.706Z,35
2017-10-25T08:06:28.044Z,40
2017-10-25T08:07:38.056Z,40
2017-10-25T08:08:48.409Z,40
2017-10-25T08:09:58.076Z,40
2017-10-25T08:11:07.764Z,40
2017-10-25T08:12:17.771Z,45
2017-10-25T08:13:27.780Z,45
2017-10-25T08:14:38.119Z,45
2017-10-25T08:15:47.808Z,45
2017-10-25T08:16:58.154Z,50
2017-10-25T08:18:08.496Z,55
2017-10-25T08:19:18.833Z,55
2017-10-25T08:20:29.169Z,60
2017-10-25T08:21:39.178Z,65
2017-10-25T08:22:48.863Z,60
2017-10-25T08:23:59.203Z,60
2017-10-25T08:25:08.869Z,55
2017-10-25T08:26:19.217Z,65
2017-10-25T08:27:28.552Z,60
2017-10-25T08:28:38.562Z,50
2017-10-25T08:29:48.234Z,45
2017-10-25T08:30:58.577Z,40
2017-10-25T08:32:08.920Z,35
2017-10-25T08:33:18.941Z,30
2017-10-25T08:34:29.363Z,30
2017-10-25T08:35:39.628Z,25
2017-10-25T08:36:50.065Z,25
2017-10-25T08:38:00.686Z,30
2017-10-25T08:39:11.108Z,30
2017-10-25T08:40:21.177Z,35
2017-10-25T08:41:31.517Z,35
2017-10-25T08:42:41.531Z,35
2017-10-25T08:43:51.541Z,35
2017-10-25T08:45:01.553Z,35
2017-10-25T08:46:11.911Z,35
2017-10-25T08:47:22.257Z,40
2017-10-25T08:48:32.607Z,45
2017-10-25T08:49:42.281Z,50
2017-10-25T08:50:52.627Z,55
2017-10-25T08:52:03.001Z,55
2017-10-25T08:53:13.338Z,50
2017-10-25T08:54:23.346Z,55
2017-10-25T08:55:33.361Z,55
2017-10-25T08:56:43.704Z,60
2017-10-25T08:57:53.707Z,65
2017-10-25T08:59:03.390Z,65
2017-10-25T09:00:13.766Z,65
2017-10-25T09:01:23.435Z,60
2017-10-25T09:02:33.805Z,65
2017-10-25T09:03:43.874Z,65
2017-10-25T09:04:54.216Z,65
2017-10-25T09:06:04.224Z,60
2017-10-25T09:07:14.569Z,55
2017-10-25T09:08:24.908Z,55
2017-10-25T09:09:35.249Z,55
2017-10-25T09:10:45.272Z,50
2017-10-25T09:11:55.282Z,50
2017-10-25T09:13:05.286Z,40
2017-10-25T09:14:15.625Z,40
2017-10-25T09:15:25.968Z,40
2017-10-25T09:16:35.972Z,35
2017-10-25T09:17:46.307Z,40
2017-10-25T09:18:55.976Z,45
2017-10-25T09:20:06.319Z,45
2017-10-25T09:21:16.670Z,45
2017-10-25T09:22:26.010Z,40
2017-10-25T09:23:36.348Z,40
2017-10-25T09:24:46.686Z,35
2017-10-25T09:25:57.033Z,40
2017-10-25T09:27:06.719Z,40
2017-10-25T09:28:16.725Z,40
2017-10-25T09:29:27.073Z,45
2017-10-25T09:30:37.075Z,50
2017-10-25T09:31:47.415Z,50
2017-10-25T09:32:57.424Z,50
2017-10-25T09:34:07.436Z,50
2017-10-25T09:35:17.475Z,50
2017-10-25T09:36:27.481Z,50
2017-10-25T09:37:37.823Z,55
2017-10-25T09:38:48.167Z,50
2017-10-25T09:39:57.836Z,50
2017-10-25T09:41:07.512Z,55
2017-10-25T09:42:17.854Z,60
2017-10-25T09:43:27.884Z,60
2017-10-25T09:44:38.229Z,65
2017-10-25T09:45:48.564Z,65
2017-10-25T09:46:58.569Z,65
2017-10-25T09:48:08.573Z,65
2017-10-25T09:49:18.910Z,65
2017-10-25T09:50:28.587Z,65
2017-10-25T09:51:38.929Z,65
2017-10-25T09:52:49.265Z,70
2017-10-25T09:53:58.602Z,75
2017-10-25T09:55:08.946Z,70
2017-10-25T09:56:19.283Z,65
2017-10-25T09:57:29.627Z,65
2017-10-25T09:58:38.959Z,65
2017-10-25T09:59:49.304Z,65
2017-10-25T10:00:59.644Z,65
2017-10-25T10:02:09.987Z,65
2017-10-25T10:03:20.324Z,65
2017-10-25T10:04:30.667Z,65
2017-10-25T10:05:41.009Z,65
2017-10-25T10:06:51.349Z,65
2017-10-25T10:08:01.690Z,65
2017-10-25T10:09:11.694Z,65
2017-10-25T10:10:22.031Z,65
2017-10-25T10:11:32.371Z,65
2017-10-25T10:12:42.731Z,65
2017-10-25T10:13:52.729Z,65
2017-10-25T10:15:03.083Z,65
2017-10-25T10:16:13.089Z,65
2017-10-25T10:17:23.424Z,70
2017-10-25T10:18:33.757Z,70
2017-10-25T10:19:43.454Z,70
2017-10-25T10:20:53.789Z,70
2017-10-25T10:22:03.455Z,70
2017-10-25T10:23:13.473Z,75
2017-10-25T10:24:23.484Z,75
2017-10-25T10:25:33.149Z,80
2017-10-25T10:26:43.491Z,85
2017-10-25T10:27:53.162Z,90
2017-10-25T10:29:02.829Z,95
2017-10-25T10:30:12.860Z,100
2017-10-25T10:31:23.196Z,95
2017-10-25T10:32:33.535Z,110
2017-10-25T10:33:43.875Z,120
2017-10-25T10:34:54.219Z,125
2017-10-25T10:36:04.228Z,125
2017-10-25T10:37:13.909Z,125
2017-10-25T10:38:23.588Z,130
2017-10-25T10:39:33.934Z,130
2017-10-25T10:40:44.277Z,125
2017-10-25T10:41:54.307Z,115
2017-10-25T10:43:04.311Z,125
2017-10-25T10:44:14.317Z,140
2017-10-25T10:45:23.984Z,170
2017-10-25T10:46:33.990Z,190
2017-10-25T10:47:44.325Z,200
2017-10-25T10:48:54.664Z,205
2017-10-25T10:50:05.006Z,220
2017-10-25T10:51:15.346Z,250
2017-10-25T10:52:25.694Z,260
2017-10-25T10:53:36.038Z,280
2017-10-25T10:54:46.041Z,315
2017-10-25T10:55:56.043Z,335
2017-10-25T10:57:06.053Z,320
2017-10-25T10:58:16.403Z,325
2017-10-25T10:59:26.740Z,335
2017-10-25T11:00:36.407Z,500
2017-10-25T11:01:46.419Z,590
2017-10-25T11:02:56.421Z,490
2017-10-25T11:04:06.775Z,500
2017-10-25T11:05:17.122Z,460
2017-10-25T11:06:27.461Z,465
2017-10-25T11:07:37.150Z,420
2017-10-25T11:08:47.492Z,540
2017-10-25T11:09:57.840Z,585
2017-10-25T11:11:07.516Z,455
2017-10-25T11:12:17.865Z,395
2017-10-25T11:13:28.218Z,310
2017-10-25T11:14:38.560Z,290
2017-10-25T11:15:48.248Z,335
2017-10-25T11:16:57.926Z,340
2017-10-25T11:18:08.294Z,370
2017-10-25T11:19:18.652Z,375
2017-10-25T11:20:28.327Z,325
2017-10-25T11:21:38.366Z,310
2017-10-25T11:22:47.705Z,260
2017-10-25T11:23:57.718Z,230
2017-10-25T11:25:08.067Z,215
2017-10-25T11:26:18.089Z,205
2017-10-25T11:27:28.437Z,185
2017-10-25T11:28:38.787Z,190
2017-10-25T11:29:49.130Z,195
2017-10-25T11:30:59.150Z,195
2017-10-25T11:32:09.163Z,215
2017-10-25T11:33:19.168Z,245
2017-10-25T11:34:29.185Z,205
2017-10-25T11:35:39.524Z,230
2017-10-25T11:36:49.533Z,265
2017-10-25T11:37:59.884Z,250
2017-10-25T11:39:10.230Z,235
2017-10-25T11:40:20.573Z,215
2017-10-25T11:41:31.220Z,230
2017-10-25T11:42:41.234Z,200
2017-10-25T11:43:50.930Z,220
2017-10-25T11:45:01.277Z,235
2017-10-25T11:46:10.950Z,230
2017-10-25T11:47:20.621Z,210
2017-10-25T11:48:30.295Z,205
2017-10-25T11:49:40.638Z,205
2017-10-25T11:50:50.646Z,230
2017-10-25T11:52:01.016Z,260
2017-10-25T11:53:11.029Z,225
2017-10-25T11:54:20.702Z,230
2017-10-25T11:55:30.729Z,225
2017-10-25T11:56:40.742Z,225
2017-10-25T11:57:51.102Z,230
2017-10-25T11:59:01.115Z,255
2017-10-25T12:00:11.123Z,250
2017-10-25T12:01:21.476Z,340
2017-10-25T12:02:31.825Z,315
2017-10-25T12:03:42.165Z,635
2017-10-25T12:04:52.508Z,270
2017-10-25T12:06:02.523Z,300
2017-10-25T12:07:12.545Z,340
2017-10-25T12:08:22.897Z,345
2017-10-25T12:09:32.900Z,320
2017-10-25T12:10:42.912Z,350
2017-10-25T12:11:53.251Z,310
2017-10-25T12:13:03.589Z,255
2017-10-25T12:14:13.592Z,210
2017-10-25T12:15:23.934Z,190
2017-10-25T12:16:33.950Z,200
2017-10-25T12:17:44.285Z,225
2017-10-25T12:18:54.633Z,240
2017-10-25T12:20:04.972Z,250
2017-10-25T12:21:14.976Z,290
2017-10-25T12:22:25.342Z,345
2017-10-25T12:23:35.683Z,470
2017-10-25T12:24:45.353Z,260
2017-10-25T12:25:55.034Z,220
2017-10-25T12:27:05.070Z,235
2017-10-25T12:28:15.417Z,265
2017-10-25T12:29:25.441Z,315
2017-10-25T12:30:35.780Z,350
2017-10-25T12:31:46.116Z,360
2017-10-25T12:32:56.119Z,330
2017-10-25T12:34:08.475Z,340
2017-10-25T12:35:18.478Z,360
2017-10-25T12:36:28.823Z,355
2017-10-25T12:37:39.163Z,345
2017-10-25T12:38:49.170Z,350
2017-10-25T12:39:59.517Z,370
2017-10-25T12:41:09.872Z,390
2017-10-25T12:42:20.216Z,380
2017-10-25T12:43:30.556Z,345
2017-10-25T12:44:40.566Z,360
2017-10-25T12:45:50.584Z,400
2017-10-25T12:47:00.611Z,405
2017-10-25T12:48:10.958Z,635
2017-10-25T12:49:20.963Z,440
2017-10-25T12:50:30.974Z,410
2017-10-25T12:51:41.317Z,435
2017-10-25T12:52:51.662Z,645
2017-10-25T12:54:02.004Z,560
2017-10-25T12:55:12.357Z,405
2017-10-25T12:56:22.706Z,450
2017-10-25T12:57:33.047Z,470
2017-10-25T12:58:43.394Z,575
2017-10-25T12:59:53.089Z,400
2017-10-25T13:01:03.099Z,650
2017-10-25T13:02:13.123Z,545
2017-10-25T13:03:23.133Z,425
2017-10-25T13:04:32.804Z,445
2017-10-25T13:05:43.143Z,390
2017-10-25T13:06:53.152Z,360
2017-10-25T13:08:03.493Z,315
2017-10-25T13:09:13.516Z,300
2017-10-25T13:10:23.194Z,315
2017-10-25T13:11:33.545Z,370
2017-10-25T13:12:43.891Z,440
2017-10-25T13:13:53.910Z,405
2017-10-25T13:15:03.929Z,500
2017-10-25T13:16:13.606Z,380
2017-10-25T13:17:23.618Z,305
2017-10-25T13:18:33.655Z,275
2017-10-25T13:19:43.669Z,325
2017-10-25T13:20:53.689Z,345
2017-10-25T13:22:04.055Z,315
2017-10-25T13:23:14.064Z,285
2017-10-25T13:24:23.739Z,265
2017-10-25T13:25:33.757Z,270
2017-10-25T13:26:44.103Z,260
2017-10-25T13:27:54.458Z,260
2017-10-25T13:29:04.811Z,250
2017-10-25T13:30:15.152Z,265
2017-10-25T13:31:25.494Z,270
2017-10-25T13:32:35.500Z,365
2017-10-25T13:33:45.850Z,430
2017-10-25T13:34:55.854Z,385
2017-10-25T13:36:05.859Z,305
2017-10-25T13:37:15.552Z,335
2017-10-25T13:38:25.901Z,455
2017-10-25T13:39:35.909Z,300
2017-10-25T13:40:46.262Z,215
2017-10-25T13:41:56.608Z,285
2017-10-25T13:43:06.953Z,290
2017-10-25T13:44:17.308Z,290
2017-10-25T13:45:27.652Z,195
2017-10-25T13:46:37.990Z,155
2017-10-25T13:47:48.326Z,175
2017-10-25T13:48:57.993Z,220
2017-10-25T13:50:07.998Z,185
2017-10-25T13:51:18.344Z,180
2017-10-25T13:52:28.704Z,210
2017-10-25T13:53:39.051Z,205
2017-10-25T13:54:49.393Z,185
2017-10-25T13:55:59.397Z,165
2017-10-25T13:57:09.752Z,155
2017-10-25T13:58:20.090Z,150
2017-10-25T13:59:30.439Z,170
2017-10-25T14:00:40.451Z,165
2017-10-25T14:01:50.800Z,160
2017-10-25T14:03:01.142Z,150
2017-10-25T14:04:11.482Z,135
2017-10-25T14:05:21.493Z,135
2017-10-25T14:06:31.845Z,135
2017-10-25T14:07:41.516Z,125
2017-10-25T14:08:51.519Z,120
2017-10-25T14:10:01.518Z,120
2017-10-25T14:11:11.526Z,120
2017-10-25T14:12:21.894Z,125
2017-10-25T14:13:32.259Z,130
2017-10-25T14:14:42.613Z,125
2017-10-25T14:15:52.618Z,125
2017-10-25T14:17:03.006Z,120
2017-10-25T14:18:13.018Z,120
2017-10-25T14:19:23.023Z,125
2017-10-25T14:20:33.031Z,120
2017-10-25T14:21:42.698Z,120
2017-10-25T14:22:53.037Z,115
2017-10-25T14:24:03.384Z,110
2017-10-25T14:25:13.386Z,110
2017-10-25T14:26:23.722Z,105
2017-10-25T14:27:34.059Z,115
2017-10-25T14:28:44.065Z,110
2017-10-25T14:29:54.066Z,110
2017-10-25T14:31:04.416Z,110
2017-10-25T14:32:13.739Z,110
2017-10-25T14:33:24.077Z,105
2017-10-25T14:34:34.076Z,105
2017-10-25T14:35:44.428Z,105
2017-10-25T14:36:54.428Z,100
2017-10-25T14:38:04.769Z,100
2017-10-25T14:39:15.124Z,100
2017-10-25T14:40:25.130Z,100
2017-10-25T14:41:35.465Z,95
2017-10-25T14:42:45.468Z,95
2017-10-25T14:43:55.803Z,90
2017-10-25T14:45:05.806Z,90
2017-10-25T14:46:16.196Z,85
2017-10-25T14:47:25.862Z,85
2017-10-25T14:48:35.861Z,85
2017-10-25T14:49:45.867Z,80
2017-10-25T14:50:55.883Z,80
2017-10-25T14:52:06.220Z,80
2017-10-25T14:53:16.222Z,75
2017-10-25T14:54:26.271Z,75
2017-10-25T14:55:36.616Z,70
2017-10-25T14:56:46.955Z,70
2017-10-25T14:57:56.969Z,70
2017-10-25T14:59:07.326Z,70
2017-10-25T15:00:17.668Z,70
2017-10-25T15:01:27.668Z,70
2017-10-25T15:02:37.671Z,65
2017-10-25T15:03:47.338Z,65
2017-10-25T15:04:57.339Z,65
2017-10-25T15:06:07.674Z,60
2017-10-25T15:07:18.020Z,60
2017-10-25T15:08:28.354Z,60
2017-10-25T15:09:38.701Z,55
2017-10-25T15:10:49.057Z,55
2017-10-25T15:11:59.396Z,55
2017-10-25T15:13:09.735Z,55
2017-10-25T15:14:20.070Z,50
2017-10-25T15:15:30.082Z,50
2017-10-25T15:16:40.420Z,50
2017-10-25T15:17:50.758Z,45
2017-10-25T15:19:01.107Z,45
2017-10-25T15:20:11.452Z,45
2017-10-25T15:21:21.801Z,40
2017-10-25T15:22:32.163Z,40
2017-10-25T15:23:42.504Z,35
2017-10-25T15:24:52.843Z,35
2017-10-25T15:26:03.178Z,35
2017-10-25T15:27:13.178Z,30
2017-10-25T15:28:23.514Z,30
2017-10-25T15:29:33.177Z,30
2017-10-25T15:30:43.186Z,30
2017-10-25T15:31:53.528Z,25
2017-10-25T15:33:03.560Z,25
2017-10-25T15:34:13.214Z,25
2017-10-25T15:35:23.214Z,20
2017-10-25T15:36:33.220Z,20
2017-10-25T15:37:42.893Z,20
2017-10-25T15:38:52.893Z,20
2017-10-25T15:40:03.234Z,15
2017-10-25T15:41:13.578Z,15
2017-10-25T15:42:23.913Z,15
2017-10-25T15:43:34.253Z,15
2017-10-25T15:44:44.253Z,10
2017-10-25T15:45:54.598Z,10
2017-10-25T15:47:04.934Z,10
2017-10-25T15:48:15.274Z,5
2017-10-25T15:49:25.617Z,5
2017-10-25T15:50:35.968Z,5
2017-10-25T15:51:45.978Z,5
2017-10-25T15:52:58.329Z,5
2017-10-25T15:54:08.343Z,0
2017-10-25T15:55:18.680Z,0
2017-10-25T15:56:28.682Z,0
2017-10-25T15:57:38.687Z,0
2017-10-25T15:58:49.022Z,0
2017-10-25T15:59:59.024Z,0
2017-10-25T16:01:09.026Z,0
2017-10-25T16:02:19.033Z,0
2017-10-25T16:03:29.030Z,0
2017-10-25T16:04:39.035Z,0
2017-10-25T16:05:49.379Z,0
2017-10-25T16:06:59.719Z,0
2017-10-25T16:08:09.739Z,0
2017-10-25T16:09:19.403Z,0
2017-10-25T16:10:29.741Z,0
2017-10-25T16:11:40.077Z,0
2017-10-25T16:12:50.094Z,0
2017-10-25T16:14:00.435Z,0
2017-10-25T16:15:10.432Z,0
2017-10-25T16:16:22.438Z,0
2017-10-25T16:17:32.773Z,0
2017-10-25T16:18:42.772Z,0
2017-10-25T16:19:53.104Z,0
2017-10-25T16:21:03.104Z,0
2017-10-25T16:22:13.448Z,0
2017-10-25T16:23:23.800Z,0
2017-10-25T16:24:33.812Z,0
2017-10-25T16:25:44.161Z,0
2017-10-25T16:26:54.166Z,0
2017-10-25T16:28:04.174Z,0
2017-10-25T16:29:14.526Z,0
2017-10-25T16:30:24.531Z,0
2017-10-25T16:31:34.865Z,0
2017-10-25T16:32:45.199Z,0
2017-10-25T16:33:55.461Z,0
2017-10-25T16:35:05.466Z,0
2017-10-25T16:36:15.802Z,0
2017-10-25T16:37:25.805Z,0
2017-10-25T16:38:36.156Z,0
2017-10-25T16:39:46.492Z,0
2017-10-25T16:40:56.829Z,0
2017-10-25T16:42:06.505Z,0
2017-10-25T16:43:16.861Z,0
2017-10-25T16:44:27.196Z,0
2017-10-25T16:45:37.197Z,0
2017-10-25T16:46:46.528Z,0
2017-10-25T16:47:56.536Z,0
2017-10-25T16:49:06.544Z,0